Sea Thames — V2BV1 — position and weather

sailwx.info

Track history (hours):
 
Tides and Currents Weather Stations Pressure Air Temp Water Temp Dewpoint Dewpoint Depression Visibility Wind Speed Wind Dir Waves Ship Positions

Sea Thames

Last reported at 2014-Sep-28 04:33 UTC. Time now 2014-Oct-02 08:33 UTC.
Position N 57°43' W 001°35'.

Length 87 m; draft 3.2 m.

Type: Cargo ship. MMSI: 304933000.

Date/timePositionNaut miles runAvg speedWind from/ knotsBaromVisibWave heightAir tempDewpointWater temp
2014-Sep-28 04:33N 57°43' W 001°35'8 7.9
2014-Sep-28 03:33N 57°35' W 001°35'7 7.2
2014-Sep-28 02:33N 57°28' W 001°38'8 7.6
2014-Sep-28 01:33N 57°21' W 001°40'  
2014-Sep-25 16:18N 55°09' W 000°53'6 7.6
2014-Sep-25 15:33N 55°04' W 000°47'8 7.8
2014-Sep-25 14:30N 54°57' W 000°39'8 8.3
2014-Sep-25 13:33N 54°51' W 000°30'9 8.8
2014-Sep-25 12:33N 54°44' W 000°22'10 9.8
2014-Sep-25 11:33N 54°36' W 000°12'1010.4
2014-Sep-25 10:33N 54°27' W 000°01'1010.3
2014-Sep-25 09:33N 54°19' E 000°09'10 9.8
2014-Sep-25 08:33N 54°11' E 000°19'10 9.0
2014-Sep-25 07:30N 54°04' E 000°30'60 8.4
2014-Sep-25 00:18N 53°13' E 001°23'7 9.8
2014-Sep-24 23:33N 53°06' E 001°29'9 8.7
2014-Sep-24 22:33N 52°59' E 001°36'7 7.3
2014-Sep-24 21:33N 52°53' E 001°42'6 6.0
2014-Sep-24 20:31N 52°48' E 001°49'6 4.8
2014-Sep-24 19:19N 52°43' E 001°55'4 5.3
2014-Sep-24 18:33N 52°39' E 001°55'7 6.6
2014-Sep-24 17:33N 52°33' E 001°53'9 9.0
2014-Sep-24 16:31N 52°23' E 001°52'1010.2
2014-Sep-24 15:33N 52°14' E 001°51'1010.5
2014-Sep-24 14:33N 52°03' E 001°50'1110.6
2014-Sep-24 13:33N 51°53' E 001°48'10 9.8
2014-Sep-24 12:33N 51°43' E 001°50'9 9.2
2014-Sep-24 11:33N 51°34' E 001°53'15 7.2
2014-Sep-24 09:29N 51°19' E 001°57'7 7.1
2014-Sep-24 08:33N 51°14' E 001°50'6 6.3
2014-Sep-24 07:33N 51°09' E 001°44'115 8.9
2014-Sep-23 18:33N 49°38' W 000°07'9 8.6
2014-Sep-23 17:33N 49°30' W 000°07'9 9.1
2014-Sep-23 16:33N 49°26' E 000°06'1212.0
2014-Sep-23 15:33N 49°27' E 000°24'  
2014-Sep-21 08:19N 49°27' E 000°33'7 9.5
2014-Sep-21 07:33N 49°26' E 000°22'1110.9
2014-Sep-21 06:33N 49°26' E 000°05'9 9.2
2014-Sep-21 05:33N 49°30' W 000°08'8 7.8
2014-Sep-21 04:33N 49°32' W 000°19'293 6.1
2014-Sep-19 04:20N 45°20' W 004°01'7 9.3
2014-Sep-19 03:33N 45°13' W 003°57'12 9.5
2014-Sep-19 02:19N 45°02' W 003°52'8 9.5
2014-Sep-19 01:31N 44°55' W 003°49'101 6.1
2014-Sep-18 09:05N 43°20' W 003°02'  
Track history (hours):
 
Tides and Currents Weather Stations Pressure Air Temp Water Temp Dewpoint Dewpoint Depression Visibility Wind Speed Wind Dir Waves Ship Positions

Sea Thames

Last reported at 2014-Sep-28 04:33 UTC. Time now 2014-Oct-02 08:33 UTC.
Position N 57°43' W 001°35'.

Length 87 m; draft 3.2 m.

Type: Cargo ship. MMSI: 304933000.

Date/timePositionNaut miles runAvg speedWind from/ knotsBaromVisibWave heightAir tempDewpointWater temp
2014-Sep-28 04:33N 57°43' W 001°35'8 7.9
2014-Sep-28 03:33N 57°35' W 001°35'7 7.2
2014-Sep-28 02:33N 57°28' W 001°38'8 7.6
2014-Sep-28 01:33N 57°21' W 001°40'  
2014-Sep-25 16:18N 55°09' W 000°53'6 7.6
2014-Sep-25 15:33N 55°04' W 000°47'8 7.8
2014-Sep-25 14:30N 54°57' W 000°39'8 8.3
2014-Sep-25 13:33N 54°51' W 000°30'9 8.8
2014-Sep-25 12:33N 54°44' W 000°22'10 9.8
2014-Sep-25 11:33N 54°36' W 000°12'1010.4
2014-Sep-25 10:33N 54°27' W 000°01'1010.3
2014-Sep-25 09:33N 54°19' E 000°09'10 9.8
2014-Sep-25 08:33N 54°11' E 000°19'10 9.0
2014-Sep-25 07:30N 54°04' E 000°30'60 8.4
2014-Sep-25 00:18N 53°13' E 001°23'7 9.8
2014-Sep-24 23:33N 53°06' E 001°29'9 8.7
2014-Sep-24 22:33N 52°59' E 001°36'7 7.3
2014-Sep-24 21:33N 52°53' E 001°42'6 6.0
2014-Sep-24 20:31N 52°48' E 001°49'6 4.8
2014-Sep-24 19:19N 52°43' E 001°55'4 5.3
2014-Sep-24 18:33N 52°39' E 001°55'7 6.6
2014-Sep-24 17:33N 52°33' E 001°53'9 9.0
2014-Sep-24 16:31N 52°23' E 001°52'1010.2
2014-Sep-24 15:33N 52°14' E 001°51'1010.5
2014-Sep-24 14:33N 52°03' E 001°50'1110.6
2014-Sep-24 13:33N 51°53' E 001°48'10 9.8
2014-Sep-24 12:33N 51°43' E 001°50'9 9.2
2014-Sep-24 11:33N 51°34' E 001°53'15 7.2
2014-Sep-24 09:29N 51°19' E 001°57'7 7.1
2014-Sep-24 08:33N 51°14' E 001°50'6 6.3
2014-Sep-24 07:33N 51°09' E 001°44'115 8.9
2014-Sep-23 18:33N 49°38' W 000°07'9 8.6
2014-Sep-23 17:33N 49°30' W 000°07'9 9.1
2014-Sep-23 16:33N 49°26' E 000°06'1212.0
2014-Sep-23 15:33N 49°27' E 000°24'  
2014-Sep-21 08:19N 49°27' E 000°33'7 9.5
2014-Sep-21 07:33N 49°26' E 000°22'1110.9
2014-Sep-21 06:33N 49°26' E 000°05'9 9.2
2014-Sep-21 05:33N 49°30' W 000°08'8 7.8
2014-Sep-21 04:33N 49°32' W 000°19'293 6.1
2014-Sep-19 04:20N 45°20' W 004°01'7 9.3
2014-Sep-19 03:33N 45°13' W 003°57'12 9.5
2014-Sep-19 02:19N 45°02' W 003°52'8 9.5
2014-Sep-19 01:31N 44°55' W 003°49'101 6.1
2014-Sep-18 09:05N 43°20' W 003°02'  

Dump ship's entire track history